createdAt,value
2024-05-09T00:02:20.786Z,14.73
2024-05-09T00:04:53.390Z,14.70
2024-05-09T00:07:23.406Z,14.72
2024-05-09T00:09:53.225Z,14.71
2024-05-09T00:12:23.185Z,14.67
2024-05-09T00:14:53.071Z,14.71
2024-05-09T00:17:23.089Z,14.76
2024-05-09T00:19:55.654Z,14.79
2024-05-09T00:22:25.524Z,14.82
2024-05-09T00:24:55.337Z,14.90
2024-05-09T00:27:25.447Z,14.92
2024-05-09T00:29:55.277Z,14.97
2024-05-09T00:32:25.266Z,15.01
2024-05-09T00:34:57.946Z,15.01
2024-05-09T00:37:27.782Z,15.05
2024-05-09T00:39:57.553Z,15.09
2024-05-09T00:42:27.330Z,15.16
2024-05-09T00:44:57.099Z,15.14
2024-05-09T00:47:27.470Z,15.21
2024-05-09T00:50:00.049Z,15.25
2024-05-09T00:52:31.127Z,15.28
2024-05-09T00:55:01.193Z,15.31
2024-05-09T00:57:31.292Z,15.33
2024-05-09T01:00:02.295Z,15.36
2024-05-09T01:02:32.694Z,15.45
2024-05-09T01:05:06.266Z,15.44
2024-05-09T01:07:36.237Z,15.42
2024-05-09T01:10:11.723Z,15.40
2024-05-09T01:12:47.148Z,15.37
2024-05-09T01:15:17.459Z,15.43
2024-05-09T01:17:48.364Z,15.33
2024-05-09T01:20:31.629Z,15.20
2024-05-09T01:23:15.541Z,15.12
2024-05-09T01:25:47.274Z,15.06
2024-05-09T01:28:18.082Z,14.90
2024-05-09T01:30:48.024Z,14.83
2024-05-09T01:33:18.118Z,14.77
2024-05-09T01:35:51.114Z,14.72
2024-05-09T01:38:23.882Z,14.66
2024-05-09T01:40:55.894Z,14.60
2024-05-09T01:43:25.976Z,14.54
2024-05-09T01:45:56.084Z,14.49
2024-05-09T01:48:30.701Z,14.45
2024-05-09T01:51:01.126Z,14.38
2024-05-09T01:53:34.196Z,14.36
2024-05-09T01:56:04.775Z,14.33
2024-05-09T01:58:34.834Z,14.29
2024-05-09T02:01:05.871Z,14.25
2024-05-09T02:03:35.924Z,14.23
2024-05-09T02:06:06.785Z,14.21
2024-05-09T02:08:39.740Z,14.16
2024-05-09T02:11:11.443Z,14.12
2024-05-09T02:13:44.255Z,14.07
2024-05-09T02:16:15.615Z,14.06
2024-05-09T02:18:45.772Z,14.03
2024-05-09T02:21:16.026Z,14.02
2024-05-09T02:23:48.744Z,13.97
2024-05-09T02:26:19.914Z,13.96
2024-05-09T02:28:50.031Z,13.94
2024-05-09T02:31:20.067Z,13.91
2024-05-09T02:33:50.345Z,13.85
2024-05-09T02:36:20.578Z,13.83
2024-05-09T02:38:51.257Z,13.80
2024-05-09T02:41:21.369Z,13.82
2024-05-09T02:43:48.680Z,13.77
2024-05-09T02:46:18.658Z,13.75
2024-05-09T02:48:46.309Z,13.74
2024-05-09T02:51:20.253Z,13.69
2024-05-09T02:53:47.443Z,13.66
2024-05-09T02:56:20.363Z,13.62
2024-05-09T02:58:47.618Z,13.58
2024-05-09T03:01:20.326Z,13.58
2024-05-09T03:03:48.657Z,13.59
2024-05-09T03:06:18.726Z,13.62
2024-05-09T03:08:46.060Z,13.63
2024-05-09T03:11:28.730Z,13.59
2024-05-09T03:13:56.102Z,13.61
2024-05-09T03:16:26.384Z,13.63
2024-05-09T03:18:54.818Z,13.62
2024-05-09T03:21:24.807Z,13.65
2024-05-09T03:23:52.133Z,13.65
2024-05-09T03:26:22.605Z,13.68
2024-05-09T03:28:53.355Z,13.72
2024-05-09T03:31:23.476Z,13.74
2024-05-09T03:33:50.978Z,13.74
2024-05-09T03:36:27.343Z,13.74
2024-05-09T03:38:57.279Z,13.71
2024-05-09T03:41:31.476Z,13.75
2024-05-09T03:44:04.668Z,13.76
2024-05-09T03:46:34.657Z,13.76
2024-05-09T03:49:02.164Z,13.76
2024-05-09T03:51:34.951Z,13.80
2024-05-09T03:54:02.317Z,13.76
2024-05-09T03:56:32.421Z,13.73
2024-05-09T03:59:05.682Z,13.73
2024-05-09T04:01:36.075Z,13.68
2024-05-09T04:04:05.701Z,13.67
2024-05-09T04:06:36.469Z,13.64
2024-05-09T04:09:05.193Z,13.67
2024-05-09T04:11:35.952Z,13.67
2024-05-09T04:14:06.311Z,13.69
2024-05-09T04:16:36.363Z,13.71
2024-05-09T04:19:03.801Z,13.74
2024-05-09T04:21:36.551Z,13.75
2024-05-09T04:24:04.337Z,13.81
2024-05-09T04:26:34.493Z,13.85
2024-05-09T04:29:02.146Z,13.91
2024-05-09T04:31:39.160Z,13.99
2024-05-09T04:34:06.591Z,14.02
2024-05-09T04:36:36.687Z,14.02
2024-05-09T04:39:04.037Z,14.08
2024-05-09T04:41:33.977Z,14.17
2024-05-09T04:44:01.705Z,14.28
2024-05-09T04:46:31.654Z,14.38
2024-05-09T04:49:01.680Z,14.51
2024-05-09T04:51:32.565Z,14.57
2024-05-09T04:53:59.922Z,14.67
2024-05-09T04:56:30.242Z,14.79
2024-05-09T04:58:57.671Z,14.91
2024-05-09T05:01:27.985Z,15.01
2024-05-09T05:03:57.766Z,15.16
2024-05-09T05:06:30.921Z,15.24
2024-05-09T05:08:58.259Z,15.39
2024-05-09T05:11:28.393Z,15.45
2024-05-09T05:13:56.038Z,15.60
2024-05-09T05:16:26.259Z,15.73
2024-05-09T05:18:56.305Z,15.82
2024-05-09T05:21:26.403Z,15.92
2024-05-09T05:23:56.726Z,16.06
2024-05-09T05:26:27.743Z,16.11
2024-05-09T05:28:55.219Z,16.29
2024-05-09T05:31:29.456Z,16.43
2024-05-09T05:33:57.368Z,16.66
2024-05-09T05:36:27.564Z,16.83
2024-05-09T05:38:57.592Z,17.01
2024-05-09T05:41:28.457Z,17.09
2024-05-09T05:43:56.019Z,17.20
2024-05-09T05:46:26.210Z,17.38
2024-05-09T05:48:53.955Z,17.64
2024-05-09T05:51:24.506Z,17.75
2024-05-09T05:53:51.777Z,18.13
2024-05-09T05:56:28.738Z,18.31
2024-05-09T05:58:56.367Z,18.60
2024-05-09T06:01:26.769Z,18.74
2024-05-09T06:03:54.298Z,18.81
2024-05-09T06:06:24.380Z,19.02
2024-05-09T06:08:52.708Z,19.36
2024-05-09T06:11:25.419Z,19.62
2024-05-09T06:13:52.764Z,19.84
2024-05-09T06:16:23.199Z,19.85
2024-05-09T06:18:51.115Z,20.02
2024-05-09T06:21:23.919Z,20.05
2024-05-09T06:23:51.376Z,19.89
2024-05-09T06:26:24.518Z,19.92
2024-05-09T06:28:54.534Z,20.08
2024-05-09T06:31:24.726Z,20.17
2024-05-09T06:33:52.379Z,20.78
2024-05-09T06:36:22.667Z,20.95
2024-05-09T06:38:50.327Z,21.37
2024-05-09T06:41:20.432Z,21.57
2024-05-09T06:43:47.825Z,21.55
2024-05-09T06:46:21.450Z,21.30
2024-05-09T06:48:49.467Z,21.28
2024-05-09T06:51:28.396Z,21.14
2024-05-09T06:53:55.798Z,21.18
2024-05-09T06:56:25.915Z,21.21
2024-05-09T06:58:54.544Z,21.71
2024-05-09T07:01:27.566Z,22.36
2024-05-09T07:03:57.926Z,21.86
2024-05-09T07:06:27.528Z,22.54
2024-05-09T07:08:57.390Z,22.26
2024-05-09T07:11:31.599Z,22.98
2024-05-09T07:14:00.600Z,22.96
2024-05-09T07:16:33.784Z,22.89
2024-05-09T07:19:01.731Z,22.97
2024-05-09T07:21:32.425Z,23.64
2024-05-09T07:24:03.223Z,23.81
2024-05-09T07:26:34.088Z,23.62
2024-05-09T07:29:01.794Z,23.91
2024-05-09T07:31:34.758Z,23.60
2024-05-09T07:34:02.261Z,24.03
2024-05-09T07:36:32.868Z,23.94
2024-05-09T07:39:03.187Z,23.98
2024-05-09T07:41:33.265Z,24.04
2024-05-09T07:44:00.979Z,23.21
2024-05-09T07:47:37.146Z,23.14
2024-05-09T07:53:21.792Z,24.57
2024-05-09T07:54:47.888Z,24.60
2024-05-09T07:57:18.131Z,24.42
2024-05-09T07:59:47.707Z,24.90
2024-05-09T08:02:18.222Z,24.53
2024-05-09T08:04:51.585Z,25.28
2024-05-09T08:07:24.818Z,24.93
2024-05-09T08:09:53.011Z,25.23
2024-05-09T08:12:22.991Z,25.75
2024-05-09T08:14:53.160Z,25.59
2024-05-09T08:17:23.605Z,25.25
2024-05-09T08:19:53.688Z,24.80
2024-05-09T08:22:23.688Z,25.01
2024-05-09T08:24:54.690Z,24.93
2024-05-09T08:27:28.494Z,25.13
2024-05-09T08:29:56.744Z,26.23
2024-05-09T08:32:28.391Z,25.56
2024-05-09T08:35:05.433Z,25.20
2024-05-09T08:37:37.793Z,25.19
2024-05-09T08:40:23.467Z,25.01
2024-05-09T08:42:57.530Z,24.42
2024-05-09T08:45:28.622Z,24.87
2024-05-09T08:47:59.837Z,25.14
2024-05-09T08:50:38.793Z,25.03
2024-05-09T08:53:10.851Z,25.77
2024-05-09T08:55:43.478Z,25.20
2024-05-09T08:58:16.176Z,25.58
2024-05-09T09:00:49.499Z,24.55
2024-05-09T09:03:19.705Z,25.63
2024-05-09T09:06:02.438Z,25.45
2024-05-09T09:08:29.826Z,25.69
2024-05-09T09:11:01.860Z,26.21
2024-05-09T09:13:29.486Z,27.34
2024-05-09T09:16:01.279Z,25.59
2024-05-09T09:18:30.494Z,26.24
2024-05-09T09:21:07.461Z,25.83
2024-05-09T09:23:35.088Z,26.40
2024-05-09T09:26:05.496Z,26.42
2024-05-09T09:28:36.835Z,26.20
2024-05-09T09:31:07.330Z,27.23
2024-05-09T09:33:36.302Z,28.33
2024-05-09T09:36:15.702Z,27.80
2024-05-09T09:38:43.954Z,28.21
2024-05-09T09:41:16.430Z,27.60
2024-05-09T09:43:45.812Z,27.95
2024-05-09T09:46:17.771Z,28.75
2024-05-09T09:48:46.798Z,28.65
2024-05-09T09:51:19.760Z,28.52
2024-05-09T09:53:49.230Z,27.19
2024-05-09T09:56:21.547Z,26.74
2024-05-09T09:58:50.110Z,27.86
2024-05-09T10:01:20.216Z,28.61
2024-05-09T10:03:47.975Z,28.79
2024-05-09T10:06:21.900Z,28.25
2024-05-09T10:08:52.510Z,28.61
2024-05-09T10:11:24.531Z,28.12
2024-05-09T10:13:55.099Z,28.60
2024-05-09T10:16:22.579Z,27.22
2024-05-09T10:18:52.836Z,28.84
2024-05-09T10:21:23.710Z,28.77
2024-05-09T10:24:00.859Z,28.92
2024-05-09T10:26:33.064Z,28.94
2024-05-09T10:29:03.572Z,29.62
2024-05-09T10:31:31.097Z,30.06
2024-05-09T10:34:03.594Z,30.43
2024-05-09T10:36:33.782Z,29.64
2024-05-09T10:39:03.696Z,29.78
2024-05-09T10:41:30.862Z,29.53
2024-05-09T10:44:00.710Z,28.59
2024-05-09T10:46:29.027Z,29.64
2024-05-09T10:49:05.324Z,30.12
2024-05-09T10:51:37.507Z,30.49
2024-05-09T10:54:07.897Z,29.43
2024-05-09T10:56:35.178Z,30.19
2024-05-09T10:59:06.349Z,30.23
2024-05-09T11:01:33.677Z,29.48
2024-05-09T11:04:04.319Z,28.81
2024-05-09T11:06:31.952Z,27.97
2024-05-09T11:09:06.492Z,28.49
2024-05-09T11:11:34.194Z,29.17
2024-05-09T11:14:17.747Z,29.38
2024-05-09T11:16:44.815Z,31.37
2024-05-09T11:19:18.833Z,31.12
2024-05-09T11:21:51.523Z,30.61
2024-05-09T11:24:27.997Z,31.52
2024-05-09T11:26:57.420Z,31.36
2024-05-09T11:29:38.942Z,31.36
2024-05-09T11:32:08.184Z,31.65
2024-05-09T11:34:43.123Z,30.38
2024-05-09T11:37:11.087Z,29.78
2024-05-09T11:39:44.856Z,30.16
2024-05-09T11:42:12.306Z,29.24
2024-05-09T11:44:42.258Z,29.90
2024-05-09T11:47:09.706Z,29.68
2024-05-09T11:50:26.740Z,30.85
2024-05-09T11:52:57.974Z,30.57
2024-05-09T11:55:47.725Z,30.19
2024-05-09T11:58:23.159Z,31.62
2024-05-09T12:00:52.451Z,31.70
2024-05-09T12:03:26.851Z,31.11
2024-05-09T12:05:54.366Z,31.29
2024-05-09T12:08:24.319Z,31.69
2024-05-09T12:10:54.486Z,30.79
2024-05-09T12:13:24.861Z,30.63
2024-05-09T12:15:52.347Z,30.85
2024-05-09T12:18:22.187Z,31.72
2024-05-09T12:20:49.415Z,30.73
2024-05-09T12:23:19.233Z,30.16
2024-05-09T12:25:46.409Z,30.24
2024-05-09T12:28:19.094Z,31.08
2024-05-09T12:30:46.413Z,29.39
2024-05-09T12:33:16.653Z,29.23
2024-05-09T12:35:46.518Z,28.77
2024-05-09T12:38:18.063Z,28.95
2024-05-09T12:40:45.341Z,28.72
2024-05-09T12:43:15.220Z,29.53
2024-05-09T12:45:45.147Z,29.70
2024-05-09T12:48:15.137Z,29.22
2024-05-09T12:50:42.538Z,28.23
2024-05-09T12:53:12.336Z,26.93
2024-05-09T12:55:48.133Z,27.53
2024-05-09T12:58:24.589Z,27.96
2024-05-09T13:00:54.638Z,27.15
2024-05-09T13:03:24.647Z,26.94
2024-05-09T13:05:52.369Z,28.01
2024-05-09T13:08:22.901Z,28.97
2024-05-09T13:10:50.468Z,28.55
2024-05-09T13:13:20.388Z,28.78
2024-05-09T13:15:47.724Z,28.96
2024-05-09T13:18:20.347Z,29.79
2024-05-09T13:20:47.582Z,29.98
2024-05-09T13:23:17.382Z,29.75
2024-05-09T13:25:44.609Z,30.94
2024-05-09T13:28:14.573Z,30.08
2024-05-09T13:30:42.465Z,29.43
2024-05-09T13:33:13.678Z,29.46
2024-05-09T13:35:48.584Z,29.17
2024-05-09T13:38:22.022Z,29.05
2024-05-09T13:40:50.615Z,28.42
2024-05-09T13:43:22.005Z,27.92
2024-05-09T13:45:49.913Z,27.85
2024-05-09T13:48:19.992Z,27.79
2024-05-09T13:50:50.234Z,27.05
2024-05-09T13:53:20.026Z,27.30
2024-05-09T13:55:47.475Z,28.00
2024-05-09T13:58:17.862Z,28.44
2024-05-09T14:00:48.840Z,28.43
2024-05-09T14:03:20.782Z,28.32
2024-05-09T14:05:52.163Z,27.86
2024-05-09T14:08:22.830Z,27.46
2024-05-09T14:10:51.350Z,27.77
2024-05-09T14:13:21.368Z,28.20
2024-05-09T14:15:49.372Z,28.06
2024-05-09T14:18:19.708Z,28.39
2024-05-09T14:20:46.964Z,28.76
2024-05-09T14:23:20.702Z,28.81
2024-05-09T14:25:51.763Z,28.02
2024-05-09T14:28:22.715Z,28.44
2024-05-09T14:30:51.076Z,28.52
2024-05-09T14:33:26.689Z,29.55
2024-05-09T14:35:54.478Z,29.06
2024-05-09T14:38:27.579Z,29.55
2024-05-09T14:40:54.921Z,29.41
2024-05-09T14:43:25.796Z,28.60
2024-05-09T14:45:53.713Z,28.22
2024-05-09T14:48:23.666Z,28.17
2024-05-09T14:50:50.965Z,27.16
2024-05-09T14:53:20.740Z,26.45
2024-05-09T14:55:50.723Z,26.80
2024-05-09T14:58:20.830Z,26.13
2024-05-09T15:00:50.918Z,25.88
2024-05-09T15:03:22.375Z,25.88
2024-05-09T15:05:51.101Z,26.04
2024-05-09T15:08:22.264Z,25.56
2024-05-09T15:10:52.707Z,25.19
2024-05-09T15:13:23.956Z,25.38
2024-05-09T15:15:51.584Z,25.68
2024-05-09T15:18:21.693Z,25.94
2024-05-09T15:20:49.158Z,25.52
2024-05-09T15:23:19.146Z,25.39
2024-05-09T15:25:46.535Z,24.84
2024-05-09T15:28:19.030Z,24.70
2024-05-09T15:30:47.033Z,25.11
2024-05-09T15:33:17.572Z,24.97
2024-05-09T15:35:46.727Z,24.32
2024-05-09T15:38:18.523Z,24.20
2024-05-09T15:40:46.114Z,24.39
2024-05-09T15:43:18.768Z,24.62
2024-05-09T15:45:46.072Z,24.61
2024-05-09T15:48:16.231Z,24.88
2024-05-09T15:50:43.678Z,24.93
2024-05-09T15:53:14.431Z,25.04
2024-05-09T15:55:42.175Z,24.98
2024-05-09T15:58:12.695Z,24.71
2024-05-09T16:00:44.814Z,24.46
2024-05-09T16:03:16.160Z,24.64
2024-05-09T16:05:44.747Z,24.31
2024-05-09T16:08:15.599Z,24.15
2024-05-09T16:10:46.105Z,24.16
2024-05-09T16:13:17.892Z,23.96
2024-05-09T16:15:48.240Z,24.00
2024-05-09T16:18:19.742Z,24.26
2024-05-09T16:20:49.479Z,23.95
2024-05-09T16:23:20.398Z,23.73
2024-05-09T16:25:48.473Z,23.99
2024-05-09T16:28:19.391Z,23.78
2024-05-09T16:30:50.286Z,23.88
2024-05-09T16:33:23.874Z,24.03
2024-05-09T16:35:51.327Z,23.94
2024-05-09T16:38:21.559Z,24.03
2024-05-09T16:40:48.943Z,23.73
2024-05-09T16:43:19.123Z,23.77
2024-05-09T16:45:46.537Z,23.91
2024-05-09T16:48:19.143Z,23.95
2024-05-09T16:50:46.368Z,24.04
2024-05-09T16:53:16.400Z,24.35
2024-05-09T16:55:43.625Z,24.19
2024-05-09T16:58:14.388Z,23.97
2024-05-09T17:00:43.632Z,24.70
2024-05-09T17:03:16.524Z,24.42
2024-05-09T17:05:47.664Z,24.21
2024-05-09T17:08:20.003Z,24.35
2024-05-09T17:10:49.214Z,23.79
2024-05-09T17:13:20.228Z,23.52
2024-05-09T17:15:50.706Z,23.60
2024-05-09T17:18:21.055Z,23.30
2024-05-09T17:20:54.683Z,23.46
2024-05-09T17:23:22.105Z,23.48
2024-05-09T17:25:51.902Z,23.28
2024-05-09T17:28:19.520Z,23.12
2024-05-09T17:30:49.667Z,22.94
2024-05-09T17:33:17.046Z,22.84
2024-05-09T17:35:50.751Z,22.77
2024-05-09T17:38:23.371Z,22.59
2024-05-09T17:40:54.795Z,22.46
2024-05-09T17:43:23.177Z,22.36
2024-05-09T17:45:53.109Z,22.23
2024-05-09T17:48:20.582Z,22.09
2024-05-09T17:50:51.554Z,21.92
2024-05-09T17:53:21.600Z,21.73
2024-05-09T17:55:53.978Z,21.57
2024-05-09T17:58:21.500Z,21.41
2024-05-09T18:00:51.528Z,21.30
2024-05-09T18:03:18.777Z,21.19
2024-05-09T18:05:48.729Z,21.02
2024-05-09T18:08:15.947Z,20.84
2024-05-09T18:10:48.379Z,20.63
2024-05-09T18:13:15.682Z,20.43
2024-05-09T18:15:45.702Z,20.24
2024-05-09T18:18:14.082Z,20.02
2024-05-09T18:20:45.936Z,19.80
2024-05-09T18:23:16.040Z,19.54
2024-05-09T18:25:54.539Z,19.39
2024-05-09T18:28:22.354Z,19.25
2024-05-09T18:30:52.447Z,19.10
2024-05-09T18:33:20.618Z,18.99
2024-05-09T18:35:50.674Z,18.84
2024-05-09T18:38:18.602Z,18.65
2024-05-09T18:40:51.092Z,18.52
2024-05-09T18:43:20.227Z,18.35
2024-05-09T18:45:53.763Z,18.25
2024-05-09T18:48:22.117Z,18.10
2024-05-09T18:50:52.300Z,17.96
2024-05-09T18:53:19.582Z,18.00
2024-05-09T18:55:52.071Z,18.41
2024-05-09T18:58:20.563Z,18.67
2024-05-09T19:00:53.020Z,18.89
2024-05-09T19:03:22.097Z,19.03
2024-05-09T19:05:52.252Z,19.17
2024-05-09T19:08:19.526Z,19.25
2024-05-09T19:10:52.659Z,19.30
2024-05-09T19:13:19.998Z,19.34
2024-05-09T19:15:49.806Z,19.28
2024-05-09T19:18:17.449Z,19.41
2024-05-09T19:20:47.412Z,19.30
2024-05-09T19:23:14.657Z,19.29
2024-05-09T19:25:44.451Z,19.30
2024-05-09T19:28:14.385Z,19.32
2024-05-09T19:30:44.422Z,19.29
2024-05-09T19:33:13.235Z,19.23
2024-05-09T19:35:44.367Z,19.21
2024-05-09T19:38:12.249Z,19.08
2024-05-09T19:40:42.126Z,18.99
2024-05-09T19:43:09.996Z,18.85
2024-05-09T19:45:43.706Z,18.78
2024-05-09T19:48:11.230Z,18.69
2024-05-09T19:50:44.058Z,18.65
2024-05-09T19:53:12.610Z,18.57
2024-05-09T19:55:43.027Z,18.43
2024-05-09T19:58:11.390Z,18.32
2024-05-09T20:00:45.043Z,18.28
2024-05-09T20:03:14.353Z,18.14
2024-05-09T20:05:45.846Z,18.04
2024-05-09T20:08:13.770Z,17.96
2024-05-09T20:10:43.767Z,17.88
2024-05-09T20:13:11.175Z,17.84
2024-05-09T20:15:41.155Z,17.66
2024-05-09T20:18:11.337Z,17.38
2024-05-09T20:20:43.629Z,17.18
2024-05-09T20:23:12.925Z,17.08
2024-05-09T20:25:43.001Z,17.21
2024-05-09T20:28:10.771Z,17.25
2024-05-09T20:30:41.111Z,17.22
2024-05-09T20:33:12.690Z,17.04
2024-05-09T20:35:42.673Z,16.93
2024-05-09T20:38:10.052Z,16.74
2024-05-09T20:40:41.189Z,16.70
2024-05-09T20:43:09.662Z,16.56
2024-05-09T20:45:40.681Z,16.49
2024-05-09T20:48:11.919Z,16.57
2024-05-09T20:50:42.777Z,16.55
2024-05-09T20:53:12.708Z,16.46
2024-05-09T20:55:45.922Z,16.33
2024-05-09T20:58:14.141Z,16.22
2024-05-09T21:00:45.979Z,16.18
2024-05-09T21:03:17.823Z,16.13
2024-05-09T21:05:49.402Z,16.04
2024-05-09T21:08:17.201Z,15.96
2024-05-09T21:10:47.783Z,15.87
2024-05-09T21:13:18.988Z,15.78
2024-05-09T21:15:46.692Z,15.73
2024-05-09T21:18:19.357Z,15.73
2024-05-09T21:20:46.531Z,15.77
2024-05-09T21:23:16.608Z,15.83
2024-05-09T21:25:44.042Z,15.88
2024-05-09T21:28:14.915Z,15.89
2024-05-09T21:30:43.410Z,15.89
2024-05-09T21:33:15.146Z,15.93
2024-05-09T21:35:45.898Z,15.92
2024-05-09T21:38:18.440Z,15.88
2024-05-09T21:40:47.587Z,15.83
2024-05-09T21:43:17.782Z,15.76
2024-05-09T21:45:45.277Z,15.75
2024-05-09T21:48:16.006Z,15.68
2024-05-09T21:50:46.006Z,15.60
2024-05-09T21:53:15.925Z,15.56
2024-05-09T21:55:43.404Z,15.49
2024-05-09T21:58:14.480Z,15.51
2024-05-09T22:00:45.505Z,15.48
2024-05-09T22:03:15.665Z,15.50
2024-05-09T22:05:45.705Z,15.55
2024-05-09T22:08:15.868Z,15.56
2024-05-09T22:10:43.173Z,15.66
2024-05-09T22:13:13.509Z,15.68
2024-05-09T22:15:41.108Z,15.68
2024-05-09T22:18:12.167Z,15.69
2024-05-09T22:20:45.167Z,15.64
2024-05-09T22:23:18.730Z,15.59
2024-05-09T22:25:45.927Z,15.59
2024-05-09T22:28:17.497Z,15.63
2024-05-09T22:30:46.512Z,15.66
2024-05-09T22:33:17.638Z,15.73
2024-05-09T22:35:45.327Z,15.79
2024-05-09T22:38:15.249Z,15.86
2024-05-09T22:40:48.567Z,15.93
2024-05-09T22:43:24.843Z,16.00
2024-05-09T22:45:53.205Z,16.07
2024-05-09T22:48:23.818Z,16.10
2024-05-09T22:50:51.657Z,16.17
2024-05-09T22:53:21.448Z,16.21
2024-05-09T22:55:51.458Z,16.28
2024-05-09T22:58:22.676Z,16.34
2024-05-09T23:00:50.248Z,16.35
2024-05-09T23:03:21.810Z,16.36
2024-05-09T23:05:49.711Z,16.41
2024-05-09T23:08:19.564Z,16.47
2024-05-09T23:10:46.895Z,16.51
2024-05-09T23:13:19.613Z,16.51
2024-05-09T23:15:47.045Z,16.56
2024-05-09T23:18:16.891Z,16.56
2024-05-09T23:20:44.073Z,16.58
2024-05-09T23:23:13.898Z,16.59
2024-05-09T23:25:42.118Z,16.58
2024-05-09T23:28:12.585Z,16.61
2024-05-09T23:30:42.786Z,16.65
2024-05-09T23:33:14.590Z,16.70
2024-05-09T23:35:43.505Z,16.75
2024-05-09T23:38:13.702Z,16.75
2024-05-09T23:40:42.329Z,16.77
2024-05-09T23:43:13.727Z,16.72
2024-05-09T23:45:46.482Z,16.72
2024-05-09T23:48:13.929Z,16.72
2024-05-09T23:50:43.995Z,16.73
2024-05-09T23:53:11.481Z,16.73
2024-05-09T23:55:41.413Z,16.75
2024-05-09T23:58:08.796Z,16.74
